sensor_id;sensor_type;location;lat;lon;timestamp;temperature;humidity
13446;DHT22;6795;51.232;3.764;2023-03-01T00:01:45;-0.30;99.90
13446;DHT22;6795;51.232;3.764;2023-03-01T00:04:16;-0.20;99.90
13446;DHT22;6795;51.232;3.764;2023-03-01T00:06:45;-0.30;99.90
13446;DHT22;6795;51.232;3.764;2023-03-01T00:09:14;-0.30;99.90
13446;DHT22;6795;51.232;3.764;2023-03-01T00:11:43;-0.30;99.90
13446;DHT22;6795;51.232;3.764;2023-03-01T00:14:12;-0.20;99.90
13446;DHT22;6795;51.232;3.764;2023-03-01T00:16:43;-0.10;99.90
13446;DHT22;6795;51.232;3.764;2023-03-01T00:19:15;-0.10;99.90
13446;DHT22;6795;51.232;3.764;2023-03-01T00:21:45;-0.10;99.90
13446;DHT22;6795;51.232;3.764;2023-03-01T00:24:14;-0.10;99.90
13446;DHT22;6795;51.232;3.764;2023-03-01T00:26:42;-0.20;99.90
13446;DHT22;6795;51.232;3.764;2023-03-01T00:29:11;-0.30;99.90
13446;DHT22;6795;51.232;3.764;2023-03-01T00:31:40;-0.30;99.90
13446;DHT22;6795;51.232;3.764;2023-03-01T00:34:09;-0.40;99.90
13446;DHT22;6795;51.232;3.764;2023-03-01T00:36:37;-0.40;99.90
13446;DHT22;6795;51.232;3.764;2023-03-01T00:39:11;-0.40;99.90
13446;DHT22;6795;51.232;3.764;2023-03-01T00:41:40;-0.40;99.90
13446;DHT22;6795;51.232;3.764;2023-03-01T00:44:09;-0.40;99.90
13446;DHT22;6795;51.232;3.764;2023-03-01T00:46:38;-0.30;99.90
13446;DHT22;6795;51.232;3.764;2023-03-01T00:49:07;-0.30;99.90
13446;DHT22;6795;51.232;3.764;2023-03-01T00:51:35;-0.30;99.90
13446;DHT22;6795;51.232;3.764;2023-03-01T00:54:05;-0.40;99.90
13446;DHT22;6795;51.232;3.764;2023-03-01T00:56:35;-0.50;99.90
13446;DHT22;6795;51.232;3.764;2023-03-01T00:59:03;-0.50;99.90
13446;DHT22;6795;51.232;3.764;2023-03-01T01:01:32;-0.60;99.90
13446;DHT22;6795;51.232;3.764;2023-03-01T01:04:03;-0.60;99.90
13446;DHT22;6795;51.232;3.764;2023-03-01T01:06:35;-0.70;99.90
13446;DHT22;6795;51.232;3.764;2023-03-01T01:09:05;-0.70;99.90
13446;DHT22;6795;51.232;3.764;2023-03-01T01:11:36;-0.70;99.90
13446;DHT22;6795;51.232;3.764;2023-03-01T01:14:05;-0.80;99.90
13446;DHT22;6795;51.232;3.764;2023-03-01T01:16:33;-0.90;99.90
13446;DHT22;6795;51.232;3.764;2023-03-01T01:19:03;-0.90;99.90
13446;DHT22;6795;51.232;3.764;2023-03-01T01:21:32;-0.90;99.90
13446;DHT22;6795;51.232;3.764;2023-03-01T01:24:03;-1.10;99.90
13446;DHT22;6795;51.232;3.764;2023-03-01T01:26:33;-1.10;99.90
13446;DHT22;6795;51.232;3.764;2023-03-01T01:29:04;-1.20;99.90
13446;DHT22;6795;51.232;3.764;2023-03-01T01:31:34;-1.30;99.90
13446;DHT22;6795;51.232;3.764;2023-03-01T01:34:04;-1.30;99.90
13446;DHT22;6795;51.232;3.764;2023-03-01T01:36:35;-1.10;99.90
13446;DHT22;6795;51.232;3.764;2023-03-01T01:39:04;-0.80;99.90
13446;DHT22;6795;51.232;3.764;2023-03-01T01:41:33;-0.70;99.90
13446;DHT22;6795;51.232;3.764;2023-03-01T01:44:15;-0.70;99.90
13446;DHT22;6795;51.232;3.764;2023-03-01T01:46:46;-0.70;99.90
13446;DHT22;6795;51.232;3.764;2023-03-01T01:49:22;-0.60;99.90
13446;DHT22;6795;51.232;3.764;2023-03-01T01:51:57;-0.50;99.90
13446;DHT22;6795;51.232;3.764;2023-03-01T01:54:34;-0.60;99.90
13446;DHT22;6795;51.232;3.764;2023-03-01T01:57:09;-0.50;99.90
13446;DHT22;6795;51.232;3.764;2023-03-01T01:59:43;-0.60;99.90
13446;DHT22;6795;51.232;3.764;2023-03-01T02:02:13;-0.60;99.90
13446;DHT22;6795;51.232;3.764;2023-03-01T02:04:42;-0.50;99.90
13446;DHT22;6795;51.232;3.764;2023-03-01T02:07:14;-0.60;99.90
13446;DHT22;6795;51.232;3.764;2023-03-01T02:09:47;-0.70;99.90
13446;DHT22;6795;51.232;3.764;2023-03-01T02:12:18;-0.70;99.90
13446;DHT22;6795;51.232;3.764;2023-03-01T02:14:48;-0.80;99.90
13446;DHT22;6795;51.232;3.764;2023-03-01T02:17:17;-0.80;99.90
13446;DHT22;6795;51.232;3.764;2023-03-01T02:19:56;-0.80;99.90
13446;DHT22;6795;51.232;3.764;2023-03-01T02:22:30;-0.90;99.90
13446;DHT22;6795;51.232;3.764;2023-03-01T02:25:07;-0.90;99.90
13446;DHT22;6795;51.232;3.764;2023-03-01T02:27:45;-0.90;99.90
13446;DHT22;6795;51.232;3.764;2023-03-01T02:30:19;-0.90;99.90
13446;DHT22;6795;51.232;3.764;2023-03-01T02:32:50;-1.00;99.90
13446;DHT22;6795;51.232;3.764;2023-03-01T02:35:19;-0.90;99.90
13446;DHT22;6795;51.232;3.764;2023-03-01T02:37:49;-0.70;99.90
13446;DHT22;6795;51.232;3.764;2023-03-01T02:40:18;-0.70;99.90
13446;DHT22;6795;51.232;3.764;2023-03-01T02:42:51;-0.70;99.90
13446;DHT22;6795;51.232;3.764;2023-03-01T02:45:24;-0.80;99.90
13446;DHT22;6795;51.232;3.764;2023-03-01T02:47:54;-0.90;99.90
13446;DHT22;6795;51.232;3.764;2023-03-01T02:50:41;-1.00;99.90
13446;DHT22;6795;51.232;3.764;2023-03-01T02:53:15;-1.00;99.90
13446;DHT22;6795;51.232;3.764;2023-03-01T02:55:45;-1.20;99.90
13446;DHT22;6795;51.232;3.764;2023-03-01T02:58:13;-1.20;99.90
13446;DHT22;6795;51.232;3.764;2023-03-01T03:00:43;-1.10;99.90
13446;DHT22;6795;51.232;3.764;2023-03-01T03:03:14;-1.10;99.90
13446;DHT22;6795;51.232;3.764;2023-03-01T03:05:45;-1.10;99.90
13446;DHT22;6795;51.232;3.764;2023-03-01T03:08:15;-1.00;99.90
13446;DHT22;6795;51.232;3.764;2023-03-01T03:10:51;-0.90;99.90
13446;DHT22;6795;51.232;3.764;2023-03-01T03:13:20;-0.90;99.90
13446;DHT22;6795;51.232;3.764;2023-03-01T03:15:50;-0.90;99.90
13446;DHT22;6795;51.232;3.764;2023-03-01T03:18:18;-0.80;99.90
13446;DHT22;6795;51.232;3.764;2023-03-01T03:20:48;-0.90;99.90
13446;DHT22;6795;51.232;3.764;2023-03-01T03:23:21;-0.80;99.90
13446;DHT22;6795;51.232;3.764;2023-03-01T03:25:50;-0.80;99.90
13446;DHT22;6795;51.232;3.764;2023-03-01T03:28:18;-0.80;99.90
13446;DHT22;6795;51.232;3.764;2023-03-01T03:30:47;-0.80;99.90
13446;DHT22;6795;51.232;3.764;2023-03-01T03:33:18;-0.80;99.90
13446;DHT22;6795;51.232;3.764;2023-03-01T03:35:48;-0.80;99.90
13446;DHT22;6795;51.232;3.764;2023-03-01T03:38:18;-0.80;99.90
13446;DHT22;6795;51.232;3.764;2023-03-01T03:40:50;-0.90;99.90
13446;DHT22;6795;51.232;3.764;2023-03-01T03:43:21;-1.00;99.90
13446;DHT22;6795;51.232;3.764;2023-03-01T03:45:50;-0.90;99.90
13446;DHT22;6795;51.232;3.764;2023-03-01T03:48:20;-1.00;99.90
13446;DHT22;6795;51.232;3.764;2023-03-01T03:50:50;-1.00;99.90
13446;DHT22;6795;51.232;3.764;2023-03-01T03:53:20;-0.90;99.90
13446;DHT22;6795;51.232;3.764;2023-03-01T03:55:49;-0.70;99.90
13446;DHT22;6795;51.232;3.764;2023-03-01T03:58:20;-0.70;99.90
13446;DHT22;6795;51.232;3.764;2023-03-01T04:00:51;-0.90;99.90
13446;DHT22;6795;51.232;3.764;2023-03-01T04:03:23;-1.10;99.90
13446;DHT22;6795;51.232;3.764;2023-03-01T04:05:52;-1.20;99.90
13446;DHT22;6795;51.232;3.764;2023-03-01T04:08:22;-1.40;99.90
13446;DHT22;6795;51.232;3.764;2023-03-01T04:10:53;-1.40;99.90
13446;DHT22;6795;51.232;3.764;2023-03-01T04:13:26;-1.50;99.90
13446;DHT22;6795;51.232;3.764;2023-03-01T04:15:55;-1.50;99.90
13446;DHT22;6795;51.232;3.764;2023-03-01T04:18:25;-1.50;99.90
13446;DHT22;6795;51.232;3.764;2023-03-01T04:20:53;-1.60;99.90
13446;DHT22;6795;51.232;3.764;2023-03-01T04:23:23;-1.60;99.90
13446;DHT22;6795;51.232;3.764;2023-03-01T04:25:53;-1.70;99.90
13446;DHT22;6795;51.232;3.764;2023-03-01T04:28:23;-1.90;99.90
13446;DHT22;6795;51.232;3.764;2023-03-01T04:30:53;-2.10;99.90
13446;DHT22;6795;51.232;3.764;2023-03-01T04:33:22;-2.30;99.90
13446;DHT22;6795;51.232;3.764;2023-03-01T04:35:52;-2.40;99.90
13446;DHT22;6795;51.232;3.764;2023-03-01T04:38:21;-2.30;99.90
13446;DHT22;6795;51.232;3.764;2023-03-01T04:40:49;-2.30;99.90
13446;DHT22;6795;51.232;3.764;2023-03-01T04:43:17;-2.30;99.90
13446;DHT22;6795;51.232;3.764;2023-03-01T04:45:46;-2.20;99.90
13446;DHT22;6795;51.232;3.764;2023-03-01T04:48:14;-1.90;99.90
13446;DHT22;6795;51.232;3.764;2023-03-01T04:50:43;-1.80;99.90
13446;DHT22;6795;51.232;3.764;2023-03-01T04:53:12;-1.60;99.90
13446;DHT22;6795;51.232;3.764;2023-03-01T04:55:41;-1.40;99.90
13446;DHT22;6795;51.232;3.764;2023-03-01T04:58:09;-1.20;99.90
13446;DHT22;6795;51.232;3.764;2023-03-01T05:00:38;-1.00;99.90
13446;DHT22;6795;51.232;3.764;2023-03-01T05:03:08;-0.80;99.90
13446;DHT22;6795;51.232;3.764;2023-03-01T05:05:37;-0.70;99.90
13446;DHT22;6795;51.232;3.764;2023-03-01T05:08:08;-0.60;99.90
13446;DHT22;6795;51.232;3.764;2023-03-01T05:10:47;-0.60;99.90
13446;DHT22;6795;51.232;3.764;2023-03-01T05:13:16;-0.50;99.90
13446;DHT22;6795;51.232;3.764;2023-03-01T05:15:53;-0.50;99.90
13446;DHT22;6795;51.232;3.764;2023-03-01T05:18:22;-0.40;99.90
13446;DHT22;6795;51.232;3.764;2023-03-01T05:20:53;-0.40;99.90
13446;DHT22;6795;51.232;3.764;2023-03-01T05:23:25;-0.40;99.90
13446;DHT22;6795;51.232;3.764;2023-03-01T05:25:57;-0.40;99.90
13446;DHT22;6795;51.232;3.764;2023-03-01T05:28:27;-0.40;99.90
13446;DHT22;6795;51.232;3.764;2023-03-01T05:30:57;-0.40;99.90
13446;DHT22;6795;51.232;3.764;2023-03-01T05:33:26;-0.40;99.90
13446;DHT22;6795;51.232;3.764;2023-03-01T05:35:58;-0.40;99.90
13446;DHT22;6795;51.232;3.764;2023-03-01T05:38:27;-0.30;99.90
13446;DHT22;6795;51.232;3.764;2023-03-01T05:40:57;-0.40;99.90
13446;DHT22;6795;51.232;3.764;2023-03-01T05:43:26;-0.30;99.90
13446;DHT22;6795;51.232;3.764;2023-03-01T05:45:57;-0.30;99.90
13446;DHT22;6795;51.232;3.764;2023-03-01T05:48:26;-0.30;99.90
13446;DHT22;6795;51.232;3.764;2023-03-01T05:50:58;-0.30;99.90
13446;DHT22;6795;51.232;3.764;2023-03-01T05:53:28;-0.30;99.90
13446;DHT22;6795;51.232;3.764;2023-03-01T05:55:58;-0.40;99.90
13446;DHT22;6795;51.232;3.764;2023-03-01T05:58:27;-0.30;99.90
13446;DHT22;6795;51.232;3.764;2023-03-01T06:00:55;-0.20;99.90
13446;DHT22;6795;51.232;3.764;2023-03-01T06:03:24;-0.30;99.90
13446;DHT22;6795;51.232;3.764;2023-03-01T06:05:57;-0.40;99.90
13446;DHT22;6795;51.232;3.764;2023-03-01T06:08:25;-0.50;99.90
13446;DHT22;6795;51.232;3.764;2023-03-01T06:10:54;-0.60;99.90
13446;DHT22;6795;51.232;3.764;2023-03-01T06:13:24;-0.70;99.90
13446;DHT22;6795;51.232;3.764;2023-03-01T06:15:56;-0.80;99.90
13446;DHT22;6795;51.232;3.764;2023-03-01T06:18:24;-0.90;99.90
13446;DHT22;6795;51.232;3.764;2023-03-01T06:20:53;-1.00;99.90
13446;DHT22;6795;51.232;3.764;2023-03-01T06:23:22;-1.10;99.90
13446;DHT22;6795;51.232;3.764;2023-03-01T06:25:51;-1.20;99.90
13446;DHT22;6795;51.232;3.764;2023-03-01T06:28:20;-1.10;99.90
13446;DHT22;6795;51.232;3.764;2023-03-01T06:30:50;-1.10;99.90
13446;DHT22;6795;51.232;3.764;2023-03-01T06:33:19;-1.20;99.90
13446;DHT22;6795;51.232;3.764;2023-03-01T06:35:50;-1.30;99.90
13446;DHT22;6795;51.232;3.764;2023-03-01T06:38:19;-1.40;99.90
13446;DHT22;6795;51.232;3.764;2023-03-01T06:40:51;-1.50;99.90
13446;DHT22;6795;51.232;3.764;2023-03-01T06:43:21;-1.80;99.90
13446;DHT22;6795;51.232;3.764;2023-03-01T06:45:51;-2.00;99.90
13446;DHT22;6795;51.232;3.764;2023-03-01T06:48:21;-2.10;99.90
13446;DHT22;6795;51.232;3.764;2023-03-01T06:50:49;-2.20;99.90
13446;DHT22;6795;51.232;3.764;2023-03-01T06:53:17;-2.30;99.90
13446;DHT22;6795;51.232;3.764;2023-03-01T06:55:46;-2.10;99.90
13446;DHT22;6795;51.232;3.764;2023-03-01T06:58:14;-1.80;99.90
13446;DHT22;6795;51.232;3.764;2023-03-01T07:00:43;-1.60;99.90
13446;DHT22;6795;51.232;3.764;2023-03-01T07:03:13;-1.40;99.90
13446;DHT22;6795;51.232;3.764;2023-03-01T07:05:41;-1.20;99.90
13446;DHT22;6795;51.232;3.764;2023-03-01T07:08:09;-0.90;99.90
13446;DHT22;6795;51.232;3.764;2023-03-01T07:10:39;-0.70;99.90
13446;DHT22;6795;51.232;3.764;2023-03-01T07:13:08;-0.50;99.90
13446;DHT22;6795;51.232;3.764;2023-03-01T07:15:36;-0.40;99.90
13446;DHT22;6795;51.232;3.764;2023-03-01T07:18:05;-0.30;99.90
13446;DHT22;6795;51.232;3.764;2023-03-01T07:20:35;-0.20;99.90
13446;DHT22;6795;51.232;3.764;2023-03-01T07:23:05;0.00;99.90
13446;DHT22;6795;51.232;3.764;2023-03-01T07:25:35;0.20;99.90
13446;DHT22;6795;51.232;3.764;2023-03-01T07:28:04;0.40;99.90
13446;DHT22;6795;51.232;3.764;2023-03-01T07:30:32;0.40;99.90
13446;DHT22;6795;51.232;3.764;2023-03-01T07:33:01;0.50;99.90
13446;DHT22;6795;51.232;3.764;2023-03-01T07:35:30;0.60;99.90
13446;DHT22;6795;51.232;3.764;2023-03-01T07:38:01;0.70;99.90
13446;DHT22;6795;51.232;3.764;2023-03-01T07:40:30;0.80;99.90
13446;DHT22;6795;51.232;3.764;2023-03-01T07:42:59;0.90;99.90
13446;DHT22;6795;51.232;3.764;2023-03-01T07:45:29;1.00;99.90
13446;DHT22;6795;51.232;3.764;2023-03-01T07:47:57;1.20;99.90
13446;DHT22;6795;51.232;3.764;2023-03-01T07:50:27;1.40;99.90
13446;DHT22;6795;51.232;3.764;2023-03-01T07:52:55;1.50;99.90
13446;DHT22;6795;51.232;3.764;2023-03-01T07:55:25;1.70;99.90
13446;DHT22;6795;51.232;3.764;2023-03-01T07:57:53;1.80;99.90
13446;DHT22;6795;51.232;3.764;2023-03-01T08:00:22;1.90;99.90
13446;DHT22;6795;51.232;3.764;2023-03-01T08:02:50;2.10;99.90
13446;DHT22;6795;51.232;3.764;2023-03-01T08:05:19;2.20;99.90
13446;DHT22;6795;51.232;3.764;2023-03-01T08:07:49;2.40;99.90
13446;DHT22;6795;51.232;3.764;2023-03-01T08:10:17;2.50;99.90
13446;DHT22;6795;51.232;3.764;2023-03-01T08:12:47;2.70;99.90
13446;DHT22;6795;51.232;3.764;2023-03-01T08:15:16;2.90;99.90
13446;DHT22;6795;51.232;3.764;2023-03-01T08:17:45;3.00;99.90
13446;DHT22;6795;51.232;3.764;2023-03-01T08:20:17;3.10;99.90
13446;DHT22;6795;51.232;3.764;2023-03-01T08:22:46;3.20;99.90
13446;DHT22;6795;51.232;3.764;2023-03-01T08:25:14;3.40;99.90
13446;DHT22;6795;51.232;3.764;2023-03-01T08:27:43;3.40;99.90
13446;DHT22;6795;51.232;3.764;2023-03-01T08:30:13;3.50;99.90
13446;DHT22;6795;51.232;3.764;2023-03-01T08:32:42;3.70;99.90
13446;DHT22;6795;51.232;3.764;2023-03-01T08:35:11;3.70;99.90
13446;DHT22;6795;51.232;3.764;2023-03-01T08:37:40;3.90;99.90
13446;DHT22;6795;51.232;3.764;2023-03-01T08:40:09;4.00;99.90
13446;DHT22;6795;51.232;3.764;2023-03-01T08:42:40;4.20;99.90
13446;DHT22;6795;51.232;3.764;2023-03-01T08:45:12;4.20;99.90
13446;DHT22;6795;51.232;3.764;2023-03-01T08:50:10;4.30;99.90
13446;DHT22;6795;51.232;3.764;2023-03-01T09:00:07;4.30;99.90
13446;DHT22;6795;51.232;3.764;2023-03-01T09:02:38;4.40;99.90
13446;DHT22;6795;51.232;3.764;2023-03-01T09:05:07;4.60;99.90
13446;DHT22;6795;51.232;3.764;2023-03-01T09:07:35;4.70;99.90
13446;DHT22;6795;51.232;3.764;2023-03-01T09:10:05;4.70;99.90
13446;DHT22;6795;51.232;3.764;2023-03-01T09:12:33;4.80;99.90
13446;DHT22;6795;51.232;3.764;2023-03-01T09:15:03;4.80;99.90
13446;DHT22;6795;51.232;3.764;2023-03-01T09:17:31;4.90;99.90
13446;DHT22;6795;51.232;3.764;2023-03-01T09:20:01;4.90;99.90
13446;DHT22;6795;51.232;3.764;2023-03-01T09:22:33;5.00;99.90
13446;DHT22;6795;51.232;3.764;2023-03-01T09:25:03;5.10;99.90
13446;DHT22;6795;51.232;3.764;2023-03-01T09:27:32;5.20;99.90
13446;DHT22;6795;51.232;3.764;2023-03-01T09:30:00;5.30;99.90
13446;DHT22;6795;51.232;3.764;2023-03-01T09:32:30;5.30;99.90
13446;DHT22;6795;51.232;3.764;2023-03-01T09:34:59;5.30;99.90
13446;DHT22;6795;51.232;3.764;2023-03-01T09:37:34;5.40;99.90
13446;DHT22;6795;51.232;3.764;2023-03-01T09:40:06;5.40;99.60
13446;DHT22;6795;51.232;3.764;2023-03-01T09:42:36;5.50;99.90
13446;DHT22;6795;51.232;3.764;2023-03-01T09:45:26;5.60;99.90
13446;DHT22;6795;51.232;3.764;2023-03-01T09:47:56;5.50;99.00
13446;DHT22;6795;51.232;3.764;2023-03-01T09:50:34;5.60;99.40
13446;DHT22;6795;51.232;3.764;2023-03-01T09:53:09;5.70;98.30
13446;DHT22;6795;51.232;3.764;2023-03-01T09:55:43;5.80;98.00
13446;DHT22;6795;51.232;3.764;2023-03-01T09:58:31;6.00;99.20
13446;DHT22;6795;51.232;3.764;2023-03-01T10:01:09;6.10;97.90
13446;DHT22;6795;51.232;3.764;2023-03-01T10:03:43;6.00;97.10
13446;DHT22;6795;51.232;3.764;2023-03-01T10:06:17;6.00;97.90
13446;DHT22;6795;51.232;3.764;2023-03-01T10:09:06;6.20;97.90
13446;DHT22;6795;51.232;3.764;2023-03-01T10:11:39;6.20;96.50
13446;DHT22;6795;51.232;3.764;2023-03-01T10:14:27;6.10;96.50
13446;DHT22;6795;51.232;3.764;2023-03-01T10:17:00;6.10;96.60
13446;DHT22;6795;51.232;3.764;2023-03-01T10:19:32;6.00;96.90
13446;DHT22;6795;51.232;3.764;2023-03-01T10:22:04;6.10;96.50
13446;DHT22;6795;51.232;3.764;2023-03-01T10:24:38;6.10;97.20
13446;DHT22;6795;51.232;3.764;2023-03-01T10:27:09;6.20;96.30
13446;DHT22;6795;51.232;3.764;2023-03-01T10:29:43;6.20;96.50
13446;DHT22;6795;51.232;3.764;2023-03-01T10:32:14;6.30;96.40
13446;DHT22;6795;51.232;3.764;2023-03-01T10:34:43;6.50;96.20
13446;DHT22;6795;51.232;3.764;2023-03-01T10:37:13;6.60;96.30
13446;DHT22;6795;51.232;3.764;2023-03-01T10:40:02;6.70;95.50
13446;DHT22;6795;51.232;3.764;2023-03-01T10:42:37;6.80;95.70
13446;DHT22;6795;51.232;3.764;2023-03-01T10:45:30;6.80;94.80
13446;DHT22;6795;51.232;3.764;2023-03-01T10:48:09;6.80;94.70
13446;DHT22;6795;51.232;3.764;2023-03-01T10:50:41;6.70;94.90
13446;DHT22;6795;51.232;3.764;2023-03-01T10:53:24;6.60;95.30
13446;DHT22;6795;51.232;3.764;2023-03-01T10:56:02;6.70;94.50
13446;DHT22;6795;51.232;3.764;2023-03-01T10:58:32;6.70;93.80
13446;DHT22;6795;51.232;3.764;2023-03-01T11:01:03;6.70;94.10
13446;DHT22;6795;51.232;3.764;2023-03-01T11:03:34;6.70;93.50
13446;DHT22;6795;51.232;3.764;2023-03-01T11:06:08;6.80;94.30
13446;DHT22;6795;51.232;3.764;2023-03-01T11:08:49;6.80;94.20
13446;DHT22;6795;51.232;3.764;2023-03-01T11:11:32;7.00;95.60
13446;DHT22;6795;51.232;3.764;2023-03-01T11:14:05;7.40;95.10
13446;DHT22;6795;51.232;3.764;2023-03-01T11:16:59;7.50;94.10
13446;DHT22;6795;51.232;3.764;2023-03-01T11:19:30;7.50;93.50
13446;DHT22;6795;51.232;3.764;2023-03-01T11:22:02;7.40;93.60
13446;DHT22;6795;51.232;3.764;2023-03-01T11:24:39;7.40;93.70
13446;DHT22;6795;51.232;3.764;2023-03-01T11:27:22;7.50;93.30
13446;DHT22;6795;51.232;3.764;2023-03-01T11:29:57;7.40;93.90
13446;DHT22;6795;51.232;3.764;2023-03-01T11:32:33;7.40;93.50
13446;DHT22;6795;51.232;3.764;2023-03-01T11:35:08;7.50;93.70
13446;DHT22;6795;51.232;3.764;2023-03-01T11:37:41;7.50;92.70
13446;DHT22;6795;51.232;3.764;2023-03-01T11:40:17;7.50;92.60
13446;DHT22;6795;51.232;3.764;2023-03-01T11:42:59;7.50;93.40
13446;DHT22;6795;51.232;3.764;2023-03-01T11:45:38;7.60;93.50
13446;DHT22;6795;51.232;3.764;2023-03-01T11:48:44;7.50;92.50
13446;DHT22;6795;51.232;3.764;2023-03-01T11:51:23;7.60;93.10
13446;DHT22;6795;51.232;3.764;2023-03-01T11:54:09;7.70;92.70
13446;DHT22;6795;51.232;3.764;2023-03-01T11:56:43;7.90;92.10
13446;DHT22;6795;51.232;3.764;2023-03-01T11:59:39;7.60;92.80
13446;DHT22;6795;51.232;3.764;2023-03-01T12:02:26;7.50;91.40
13446;DHT22;6795;51.232;3.764;2023-03-01T12:08:01;7.60;92.70
13446;DHT22;6795;51.232;3.764;2023-03-01T12:10:41;7.60;92.50
13446;DHT22;6795;51.232;3.764;2023-03-01T12:16:40;7.60;91.90
13446;DHT22;6795;51.232;3.764;2023-03-01T12:19:31;7.70;91.60
13446;DHT22;6795;51.232;3.764;2023-03-01T12:22:21;7.70;92.30
13446;DHT22;6795;51.232;3.764;2023-03-01T12:25:21;7.80;91.40
13446;DHT22;6795;51.232;3.764;2023-03-01T12:28:06;7.80;90.90
13446;DHT22;6795;51.232;3.764;2023-03-01T12:30:46;7.80;91.30
13446;DHT22;6795;51.232;3.764;2023-03-01T12:33:28;7.90;91.90
13446;DHT22;6795;51.232;3.764;2023-03-01T12:36:21;8.00;91.00
13446;DHT22;6795;51.232;3.764;2023-03-01T12:39:03;8.00;91.00
13446;DHT22;6795;51.232;3.764;2023-03-01T12:41:46;8.10;91.60
13446;DHT22;6795;51.232;3.764;2023-03-01T12:44:26;8.20;91.40
13446;DHT22;6795;51.232;3.764;2023-03-01T12:47:20;8.20;91.10
13446;DHT22;6795;51.232;3.764;2023-03-01T12:49:54;8.10;91.00
13446;DHT22;6795;51.232;3.764;2023-03-01T12:52:29;8.20;90.70
13446;DHT22;6795;51.232;3.764;2023-03-01T12:55:16;8.10;90.10
13446;DHT22;6795;51.232;3.764;2023-03-01T12:57:53;8.10;90.20
13446;DHT22;6795;51.232;3.764;2023-03-01T13:00:31;8.30;90.20
13446;DHT22;6795;51.232;3.764;2023-03-01T13:03:09;8.40;89.30
13446;DHT22;6795;51.232;3.764;2023-03-01T13:05:52;8.50;88.90
13446;DHT22;6795;51.232;3.764;2023-03-01T13:08:29;8.40;90.70
13446;DHT22;6795;51.232;3.764;2023-03-01T13:11:04;8.40;89.60
13446;DHT22;6795;51.232;3.764;2023-03-01T13:13:33;8.30;88.50
13446;DHT22;6795;51.232;3.764;2023-03-01T13:16:21;8.40;88.60
13446;DHT22;6795;51.232;3.764;2023-03-01T13:19:06;8.30;90.00
13446;DHT22;6795;51.232;3.764;2023-03-01T13:21:36;8.30;88.60
13446;DHT22;6795;51.232;3.764;2023-03-01T13:24:24;8.30;88.60
13446;DHT22;6795;51.232;3.764;2023-03-01T13:27:21;8.20;89.00
13446;DHT22;6795;51.232;3.764;2023-03-01T13:29:52;8.10;89.70
13446;DHT22;6795;51.232;3.764;2023-03-01T13:32:22;8.20;90.40
13446;DHT22;6795;51.232;3.764;2023-03-01T13:41:00;8.40;90.00
13446;DHT22;6795;51.232;3.764;2023-03-01T13:43:31;8.30;90.00
13446;DHT22;6795;51.232;3.764;2023-03-01T13:46:00;8.40;90.40
13446;DHT22;6795;51.232;3.764;2023-03-01T13:48:30;8.30;90.10
13446;DHT22;6795;51.232;3.764;2023-03-01T13:51:02;8.50;90.70
13446;DHT22;6795;51.232;3.764;2023-03-01T13:53:35;8.70;90.70
13446;DHT22;6795;51.232;3.764;2023-03-01T13:56:09;8.90;90.20
13446;DHT22;6795;51.232;3.764;2023-03-01T13:58:49;8.90;88.60
13446;DHT22;6795;51.232;3.764;2023-03-01T14:01:23;8.70;89.30
13446;DHT22;6795;51.232;3.764;2023-03-01T14:03:53;8.50;90.00
13446;DHT22;6795;51.232;3.764;2023-03-01T14:06:25;8.30;89.80
13446;DHT22;6795;51.232;3.764;2023-03-01T14:09:03;8.10;90.00
13446;DHT22;6795;51.232;3.764;2023-03-01T14:12:05;8.00;90.00
13446;DHT22;6795;51.232;3.764;2023-03-01T14:14:50;8.10;90.30
13446;DHT22;6795;51.232;3.764;2023-03-01T14:20:20;8.30;89.30
13446;DHT22;6795;51.232;3.764;2023-03-01T14:22:51;8.30;87.70
13446;DHT22;6795;51.232;3.764;2023-03-01T14:25:23;8.20;90.10
13446;DHT22;6795;51.232;3.764;2023-03-01T14:28:00;8.40;89.60
13446;DHT22;6795;51.232;3.764;2023-03-01T14:30:34;8.50;89.30
13446;DHT22;6795;51.232;3.764;2023-03-01T14:33:06;8.70;90.20
13446;DHT22;6795;51.232;3.764;2023-03-01T14:35:53;8.50;87.50
13446;DHT22;6795;51.232;3.764;2023-03-01T14:38:22;8.50;89.20
13446;DHT22;6795;51.232;3.764;2023-03-01T14:40:55;8.50;88.00
13446;DHT22;6795;51.232;3.764;2023-03-01T14:43:27;8.60;90.30
13446;DHT22;6795;51.232;3.764;2023-03-01T14:45:57;8.40;89.10
13446;DHT22;6795;51.232;3.764;2023-03-01T14:48:27;8.10;88.90
13446;DHT22;6795;51.232;3.764;2023-03-01T14:50:57;7.80;89.00
13446;DHT22;6795;51.232;3.764;2023-03-01T14:53:29;7.80;90.20
13446;DHT22;6795;51.232;3.764;2023-03-01T14:56:12;7.90;90.50
13446;DHT22;6795;51.232;3.764;2023-03-01T14:58:42;8.10;90.10
13446;DHT22;6795;51.232;3.764;2023-03-01T15:01:15;8.20;90.20
13446;DHT22;6795;51.232;3.764;2023-03-01T15:03:46;8.40;89.90
13446;DHT22;6795;51.232;3.764;2023-03-01T15:06:17;8.30;89.60
13446;DHT22;6795;51.232;3.764;2023-03-01T15:08:48;8.20;89.90
13446;DHT22;6795;51.232;3.764;2023-03-01T15:11:21;8.20;90.60
13446;DHT22;6795;51.232;3.764;2023-03-01T15:13:53;8.10;90.10
13446;DHT22;6795;51.232;3.764;2023-03-01T15:16:24;8.10;90.20
13446;DHT22;6795;51.232;3.764;2023-03-01T15:18:55;7.90;90.30
13446;DHT22;6795;51.232;3.764;2023-03-01T15:21:25;7.80;90.40
13446;DHT22;6795;51.232;3.764;2023-03-01T15:23:59;7.80;90.10
13446;DHT22;6795;51.232;3.764;2023-03-01T15:26:30;7.90;90.90
13446;DHT22;6795;51.232;3.764;2023-03-01T15:29:01;7.90;90.70
13446;DHT22;6795;51.232;3.764;2023-03-01T15:31:32;7.80;91.30
13446;DHT22;6795;51.232;3.764;2023-03-01T15:34:11;7.50;90.20
13446;DHT22;6795;51.232;3.764;2023-03-01T15:36:50;7.20;91.00
13446;DHT22;6795;51.232;3.764;2023-03-01T15:39:40;7.10;91.60
13446;DHT22;6795;51.232;3.764;2023-03-01T15:42:12;6.90;91.90
13446;DHT22;6795;51.232;3.764;2023-03-01T15:44:45;6.90;92.20
13446;DHT22;6795;51.232;3.764;2023-03-01T15:47:28;6.80;92.20
13446;DHT22;6795;51.232;3.764;2023-03-01T15:49:58;6.70;92.30
13446;DHT22;6795;51.232;3.764;2023-03-01T15:52:31;6.70;92.30
13446;DHT22;6795;51.232;3.764;2023-03-01T15:55:12;6.60;92.70
13446;DHT22;6795;51.232;3.764;2023-03-01T15:57:49;6.60;92.00
13446;DHT22;6795;51.232;3.764;2023-03-01T16:02:58;6.50;92.10
13446;DHT22;6795;51.232;3.764;2023-03-01T16:05:30;6.50;92.60
13446;DHT22;6795;51.232;3.764;2023-03-01T16:07:59;6.50;93.00
13446;DHT22;6795;51.232;3.764;2023-03-01T16:10:29;6.40;93.00
13446;DHT22;6795;51.232;3.764;2023-03-01T16:12:59;6.40;93.00
13446;DHT22;6795;51.232;3.764;2023-03-01T16:15:31;6.40;93.00
13446;DHT22;6795;51.232;3.764;2023-03-01T16:18:01;6.40;92.40
13446;DHT22;6795;51.232;3.764;2023-03-01T16:20:31;6.30;92.60
13446;DHT22;6795;51.232;3.764;2023-03-01T16:23:01;6.30;93.20
13446;DHT22;6795;51.232;3.764;2023-03-01T16:25:31;6.30;93.40
13446;DHT22;6795;51.232;3.764;2023-03-01T16:27:59;6.20;93.80
13446;DHT22;6795;51.232;3.764;2023-03-01T16:30:33;6.20;94.00
13446;DHT22;6795;51.232;3.764;2023-03-01T16:33:03;6.20;93.70
13446;DHT22;6795;51.232;3.764;2023-03-01T16:35:53;6.10;93.50
13446;DHT22;6795;51.232;3.764;2023-03-01T16:38:21;6.10;93.30
13446;DHT22;6795;51.232;3.764;2023-03-01T16:48:19;6.00;92.90
13446;DHT22;6795;51.232;3.764;2023-03-01T16:50:56;5.80;93.70
13446;DHT22;6795;51.232;3.764;2023-03-01T16:53:25;5.80;93.90
13446;DHT22;6795;51.232;3.764;2023-03-01T16:55:55;5.80;94.10
13446;DHT22;6795;51.232;3.764;2023-03-01T16:58:23;5.70;94.40
13446;DHT22;6795;51.232;3.764;2023-03-01T17:00:54;5.60;94.50
13446;DHT22;6795;51.232;3.764;2023-03-01T17:03:24;5.50;94.80
13446;DHT22;6795;51.232;3.764;2023-03-01T17:05:53;5.40;94.90